createdAt,value
2019-06-26T00:04:46.295Z,6.93
2019-06-26T00:09:53.534Z,7.00
2019-06-26T00:15:00.828Z,7.43
2019-06-26T00:20:08.652Z,7.20
2019-06-26T00:25:16.028Z,7.47
2019-06-26T00:30:23.398Z,7.30
2019-06-26T00:35:31.273Z,6.83
2019-06-26T00:40:38.315Z,6.70
2019-06-26T00:45:45.527Z,7.07
2019-06-26T00:50:52.597Z,6.40
2019-06-26T00:55:59.682Z,6.70
2019-06-26T01:01:06.983Z,6.63
2019-06-26T01:06:33.525Z,6.97
2019-06-26T01:11:40.654Z,6.33
2019-06-26T01:16:49.327Z,6.20
2019-06-26T01:21:58.072Z,7.30
2019-06-26T01:27:05.827Z,7.07
2019-06-26T01:32:13.269Z,6.63
2019-06-26T01:37:20.423Z,7.10
2019-06-26T01:42:27.695Z,6.47
2019-06-26T01:47:35.240Z,7.87
2019-06-26T01:52:42.446Z,8.33
2019-06-26T01:57:50.420Z,7.30
2019-06-26T02:02:57.560Z,6.90
2019-06-26T02:08:05.690Z,6.90
2019-06-26T02:13:13.123Z,7.50
2019-06-26T02:18:36.657Z,6.70
2019-06-26T02:23:43.814Z,7.10
2019-06-26T02:28:51.049Z,7.27
2019-06-26T02:33:58.150Z,7.27
2019-06-26T02:39:07.402Z,7.67
2019-06-26T02:44:14.578Z,7.47
2019-06-26T02:49:22.013Z,7.20
2019-06-26T02:54:29.074Z,7.63
2019-06-26T02:59:36.149Z,7.40
2019-06-26T03:04:43.208Z,6.73
2019-06-26T03:09:50.305Z,7.40
2019-06-26T03:15:08.330Z,7.07
2019-06-26T03:20:07.417Z,6.97
2019-06-26T03:25:14.801Z,7.37
2019-06-26T03:30:22.072Z,7.40
2019-06-26T03:35:29.170Z,7.87
2019-06-26T03:40:36.374Z,7.60
2019-06-26T03:45:43.356Z,7.40
2019-06-26T03:50:50.458Z,7.87
2019-06-26T03:55:57.837Z,8.63
2019-06-26T04:01:09.124Z,12.70
2019-06-26T04:06:16.202Z,22.23
2019-06-26T04:11:23.265Z,28.20
2019-06-26T04:16:30.489Z,25.17
2019-06-26T04:21:38.606Z,15.10
2019-06-26T04:26:47.112Z,10.63
2019-06-26T04:31:54.219Z,10.27
2019-06-26T04:37:02.429Z,10.30
2019-06-26T04:42:09.521Z,11.33
2019-06-26T04:47:16.653Z,11.23
2019-06-26T04:52:23.840Z,10.45
2019-06-26T04:57:31.109Z,10.13
2019-06-26T05:02:38.225Z,10.37
2019-06-26T05:07:46.437Z,9.03
2019-06-26T05:12:53.546Z,9.37
2019-06-26T05:18:00.665Z,9.03
2019-06-26T05:23:07.869Z,10.73
2019-06-26T05:28:14.937Z,9.00
2019-06-26T05:33:22.011Z,8.90
2019-06-26T05:38:29.191Z,9.15
2019-06-26T05:43:36.550Z,10.23
2019-06-26T05:48:43.666Z,9.43
2019-06-26T05:53:51.997Z,8.60
2019-06-26T05:58:59.141Z,10.32
2019-06-26T06:04:06.354Z,13.28
2019-06-26T06:09:13.469Z,10.05
2019-06-26T06:14:20.656Z,10.10
2019-06-26T06:19:28.026Z,10.15
2019-06-26T06:24:35.587Z,9.30
2019-06-26T06:29:42.732Z,9.70
2019-06-26T06:34:50.084Z,10.00
2019-06-26T06:39:57.269Z,10.58
2019-06-26T06:45:05.063Z,9.35
2019-06-26T06:50:12.504Z,11.73
2019-06-26T06:55:19.698Z,10.78
2019-06-26T07:00:27.013Z,10.72
2019-06-26T07:05:35.650Z,11.03
2019-06-26T07:10:42.834Z,11.33
2019-06-26T07:15:50.020Z,10.75
2019-06-26T07:20:57.444Z,11.05
2019-06-26T07:26:05.440Z,10.90
2019-06-26T07:31:12.789Z,11.30
2019-06-26T07:36:19.930Z,11.08
2019-06-26T07:41:27.198Z,11.20
2019-06-26T07:46:35.416Z,10.68
2019-06-26T07:51:42.667Z,10.80
2019-06-26T07:56:49.874Z,10.57
2019-06-26T08:01:57.097Z,9.98
2019-06-26T08:07:04.245Z,8.78
2019-06-26T08:12:11.428Z,8.88
2019-06-26T08:17:18.804Z,9.00
2019-06-26T08:22:25.875Z,9.55
2019-06-26T08:27:33.142Z,8.53
2019-06-26T08:32:40.874Z,8.38
2019-06-26T08:37:48.029Z,7.85
2019-06-26T08:42:57.469Z,7.85
2019-06-26T08:48:19.060Z,8.13
2019-06-26T08:53:13.581Z,7.60
2019-06-26T08:58:20.533Z,6.83
2019-06-26T09:03:28.057Z,7.45
2019-06-26T09:08:35.646Z,6.92
2019-06-26T09:13:42.807Z,6.97
2019-06-26T09:18:49.889Z,7.92
2019-06-26T09:23:56.953Z,6.97
2019-06-26T09:29:04.081Z,6.10
2019-06-26T09:34:11.167Z,6.62
2019-06-26T09:39:18.459Z,6.30
2019-06-26T09:44:25.607Z,6.42
2019-06-26T09:49:32.769Z,6.30
2019-06-26T09:54:39.980Z,6.55
2019-06-26T09:59:48.124Z,6.23
2019-06-26T10:04:55.192Z,6.62
2019-06-26T10:10:02.326Z,6.20
2019-06-26T10:15:09.949Z,5.97
2019-06-26T10:20:17.298Z,6.63
2019-06-26T10:25:24.366Z,6.17
2019-06-26T10:30:31.361Z,6.33
2019-06-26T10:35:38.425Z,5.75
2019-06-26T10:40:45.388Z,5.92
2019-06-26T10:45:52.609Z,5.87
2019-06-26T10:50:59.582Z,6.05
2019-06-26T10:56:07.656Z,6.15
2019-06-26T11:01:14.764Z,5.35
2019-06-26T11:06:22.295Z,5.70
2019-06-26T11:11:29.402Z,5.95
2019-06-26T11:16:36.537Z,6.20
2019-06-26T11:21:44.153Z,7.53
2019-06-26T11:26:51.230Z,8.25
2019-06-26T11:31:58.327Z,6.90
2019-06-26T11:37:05.750Z,7.55
2019-06-26T11:42:13.098Z,7.17
2019-06-26T11:47:20.250Z,7.00
2019-06-26T11:52:27.772Z,8.03
2019-06-26T11:57:35.596Z,7.20
2019-06-26T12:02:43.001Z,7.50
2019-06-26T12:07:50.144Z,8.48
2019-06-26T12:12:57.573Z,8.15
2019-06-26T12:18:05.728Z,8.35
2019-06-26T12:23:13.180Z,8.08
2019-06-26T12:28:20.369Z,7.65
2019-06-26T12:33:27.422Z,7.30
2019-06-26T12:38:34.513Z,7.87
2019-06-26T12:43:41.923Z,7.58
2019-06-26T12:48:49.076Z,16.35
2019-06-26T12:53:58.400Z,10.20
2019-06-26T12:59:04.737Z,8.53
2019-06-26T13:04:11.913Z,8.60
2019-06-26T13:09:19.000Z,8.68
2019-06-26T13:14:26.211Z,8.45
2019-06-26T13:19:33.395Z,8.80
2019-06-26T13:24:43.838Z,7.95
2019-06-26T13:34:57.211Z,8.43
2019-06-26T13:40:04.389Z,7.22
2019-06-26T13:45:11.932Z,7.35
2019-06-26T13:50:19.619Z,7.37
2019-06-26T13:55:26.570Z,7.33
2019-06-26T14:00:33.631Z,6.28
2019-06-26T14:05:40.827Z,6.30
2019-06-26T14:10:47.870Z,6.28
2019-06-26T14:15:55.419Z,6.20
2019-06-26T14:21:02.767Z,6.25
2019-06-26T14:26:09.998Z,5.65
2019-06-26T14:31:17.371Z,5.60
2019-06-26T14:36:24.422Z,6.37
2019-06-26T14:41:31.547Z,5.75
2019-06-26T14:46:38.621Z,6.20
2019-06-26T14:51:47.771Z,5.78
2019-06-26T14:56:54.278Z,6.60
2019-06-26T15:02:01.953Z,6.28
2019-06-26T15:07:08.933Z,5.72
2019-06-26T15:12:16.040Z,5.87
2019-06-26T15:17:23.114Z,5.90
2019-06-26T15:22:30.302Z,6.37
2019-06-26T15:27:37.499Z,6.30
2019-06-26T15:32:44.673Z,6.90
2019-06-26T15:37:51.942Z,6.60
2019-06-26T15:42:59.117Z,6.47
2019-06-26T15:48:06.223Z,6.10
2019-06-26T15:53:13.322Z,6.53
2019-06-26T15:58:20.313Z,6.17
2019-06-26T16:03:27.412Z,5.47
2019-06-26T16:08:34.577Z,5.47
2019-06-26T16:13:41.707Z,5.17
2019-06-26T16:18:53.619Z,5.58
2019-06-26T16:24:00.781Z,6.80
2019-06-26T16:29:07.836Z,5.47
2019-06-26T16:34:14.988Z,5.78
2019-06-26T16:39:24.416Z,5.80
2019-06-26T16:44:31.754Z,5.65
2019-06-26T16:49:38.831Z,5.08
2019-06-26T16:54:46.596Z,5.65
2019-06-26T17:00:08.426Z,5.40
2019-06-26T17:05:02.594Z,5.45
2019-06-26T17:10:10.896Z,5.15
2019-06-26T17:15:19.087Z,5.75
2019-06-26T17:20:27.434Z,5.22
2019-06-26T17:25:34.706Z,5.45
2019-06-26T17:30:41.793Z,5.42
2019-06-26T17:35:50.511Z,4.80
2019-06-26T17:40:59.525Z,5.35
2019-06-26T17:46:06.389Z,5.20
2019-06-26T17:51:13.479Z,4.80
2019-06-26T17:56:20.698Z,4.92
2019-06-26T18:01:29.021Z,4.75
2019-06-26T18:06:36.147Z,4.78
2019-06-26T18:11:43.225Z,4.75
2019-06-26T18:16:51.578Z,6.72
2019-06-26T18:21:58.745Z,5.55
2019-06-26T18:27:06.059Z,5.85
2019-06-26T18:32:13.124Z,5.70
2019-06-26T18:37:20.674Z,5.80
2019-06-26T18:42:27.731Z,6.00
2019-06-26T18:47:34.823Z,7.33
2019-06-26T18:52:41.948Z,7.47
2019-06-26T18:57:49.042Z,11.05
2019-06-26T19:02:56.240Z,29.35
2019-06-26T19:08:03.328Z,15.58
2019-06-26T19:13:10.312Z,14.23
2019-06-26T19:18:17.764Z,14.55
2019-06-26T19:23:24.964Z,15.20
2019-06-26T19:28:32.155Z,12.87
2019-06-26T19:33:39.842Z,39.38
2019-06-26T19:38:47.002Z,12.27
2019-06-26T19:43:54.103Z,17.50
2019-06-26T19:49:01.088Z,11.65
2019-06-26T19:54:08.667Z,10.57
2019-06-26T19:59:15.853Z,10.25
2019-06-26T20:04:23.009Z,10.87
2019-06-26T20:09:30.215Z,9.80
2019-06-26T20:14:37.288Z,9.73
2019-06-26T20:19:45.816Z,9.80
2019-06-26T20:24:57.195Z,10.43
2019-06-26T20:30:02.469Z,10.13
2019-06-26T20:35:09.875Z,10.23
2019-06-26T20:40:17.212Z,9.30
2019-06-26T20:45:24.399Z,8.77
2019-06-26T20:50:31.513Z,9.03
2019-06-26T20:55:38.777Z,7.83
2019-06-26T21:00:45.929Z,7.47
2019-06-26T21:05:52.947Z,8.50
2019-06-26T21:11:11.723Z,8.10
2019-06-26T21:16:20.546Z,8.10
2019-06-26T21:21:27.566Z,6.93
2019-06-26T21:26:34.644Z,7.77
2019-06-26T21:31:41.626Z,7.73
2019-06-26T21:36:48.907Z,7.90
2019-06-26T21:41:55.993Z,7.53
2019-06-26T21:47:03.087Z,8.17
2019-06-26T21:52:10.203Z,8.33
2019-06-26T21:57:17.376Z,8.07
2019-06-26T22:08:29.906Z,8.00
2019-06-26T22:13:38.966Z,7.50
2019-06-26T22:18:46.362Z,6.80
2019-06-26T22:23:53.533Z,6.63
2019-06-26T22:29:00.616Z,8.60
2019-06-26T22:34:08.683Z,12.33
2019-06-26T22:39:15.830Z,7.00
2019-06-26T22:44:23.094Z,6.33
2019-06-26T22:49:30.195Z,7.00
2019-06-26T22:54:37.486Z,6.40
2019-06-26T22:59:44.519Z,6.23
2019-06-26T23:04:51.600Z,6.50
2019-06-26T23:09:58.654Z,6.23
2019-06-26T23:15:06.478Z,5.97
2019-06-26T23:20:13.825Z,6.17
2019-06-26T23:25:20.979Z,5.57
2019-06-26T23:30:29.063Z,5.63
2019-06-26T23:35:36.111Z,5.00
2019-06-26T23:40:43.445Z,5.40
2019-06-26T23:45:50.500Z,5.27
2019-06-26T23:50:58.163Z,5.03
2019-06-26T23:56:05.683Z,5.00
